Time;durP1;ratioP1;P1;durP2;ratioP2;P2;SDS_P1;SDS_P2;PMS_P1;PMS_P2;Temp;Humidity;BMP_temperature;BMP_pressure;BME280_temperature;BME280_humidity;BME280_pressure;Samples;Min_cycle;Max_cycle;Signal;HPM_P1;HPM_P2
2022/03/16 00:02:06;;;;;;;19.55;12.52;;;9.90;99.90;;;;;;6246884;23;20182;-74
2022/03/16 00:04:32;;;;;;;17.13;10.57;;;10.00;99.90;;;;;;6246890;22;20217;-74
2022/03/16 00:07:01;;;;;;;18.55;10.75;;;10.00;99.90;;;;;;6247307;23;20159;-74
2022/03/16 00:09:28;;;;;;;21.55;13.00;;;10.10;99.90;;;;;;6246801;23;20217;-73
2022/03/16 00:11:55;;;;;;;24.00;12.35;;;10.00;99.90;;;;;;6246881;23;20563;-74
2022/03/16 00:14:22;;;;;;;12.75;9.65;;;10.10;99.90;;;;;;6247082;22;20574;-74
2022/03/16 00:16:49;;;;;;;19.70;13.68;;;10.10;99.90;;;;;;6247660;23;20266;-72
2022/03/16 00:19:16;;;;;;;17.73;11.48;;;10.20;99.90;;;;;;6248049;23;20195;-74
2022/03/16 00:21:43;;;;;;;17.63;11.75;;;10.20;99.90;;;;;;6246633;23;20168;-73
2022/03/16 00:24:11;;;;;;;15.85;11.43;;;10.10;99.90;;;;;;6247316;22;20260;-73
2022/03/16 00:26:38;;;;;;;15.38;12.18;;;10.10;99.90;;;;;;6251087;23;20613;-75
2022/03/16 00:29:05;;;;;;;17.00;12.70;;;10.10;99.90;;;;;;6247905;23;20176;-75
2022/03/16 00:31:33;;;;;;;21.25;11.73;;;10.10;99.90;;;;;;6248804;23;20183;-72
2022/03/16 00:34:00;;;;;;;19.15;12.65;;;10.10;99.90;;;;;;6251284;22;20199;-74
2022/03/16 00:36:27;;;;;;;18.65;12.82;;;10.00;99.90;;;;;;6254920;23;20163;-73
2022/03/16 00:38:54;;;;;;;18.92;13.38;;;10.00;99.90;;;;;;6255484;23;20210;-71
2022/03/16 00:41:22;;;;;;;13.77;10.57;;;10.00;99.90;;;;;;6255055;23;20163;-73
2022/03/16 00:43:49;;;;;;;17.33;12.23;;;10.00;99.90;;;;;;6251405;22;20199;-74
2022/03/16 00:46:16;;;;;;;17.88;12.75;;;10.10;99.90;;;;;;6248320;23;20500;-73
2022/03/16 00:48:43;;;;;;;16.77;11.60;;;10.10;99.90;;;;;;6248452;23;20637;-75
2022/03/16 00:51:10;;;;;;;21.10;14.30;;;10.10;99.90;;;;;;6258757;23;20163;-73
2022/03/16 00:53:39;;;;;;;21.30;13.40;;;10.10;99.90;;;;;;6252434;22;20221;-74
2022/03/16 00:56:08;;;;;;;19.33;12.48;;;10.10;99.90;;;;;;6247011;23;20167;-75
2022/03/16 00:58:36;;;;;;;21.48;13.50;;;10.00;99.90;;;;;;6246831;22;20179;-75
2022/03/16 01:01:05;;;;;;;21.27;13.27;;;9.90;99.90;;;;;;6245611;23;20194;-73
2022/03/16 01:03:33;;;;;;;20.08;13.25;;;9.70;99.90;;;;;;6246557;22;20531;-74
2022/03/16 01:06:00;;;;;;;19.15;13.45;;;9.60;99.90;;;;;;6245684;23;20238;-74
2022/03/16 01:08:28;;;;;;;21.98;14.07;;;9.60;99.90;;;;;;6245387;22;20599;-75
2022/03/16 01:10:55;;;;;;;22.92;13.95;;;9.50;99.90;;;;;;6244893;23;20182;-75
2022/03/16 01:13:24;;;;;;;20.70;14.90;;;9.50;99.90;;;;;;6245933;22;20658;-76
2022/03/16 01:15:52;;;;;;;20.42;14.13;;;9.40;99.90;;;;;;6245499;23;20237;-74
2022/03/16 01:18:19;;;;;;;18.02;14.00;;;9.40;99.90;;;;;;6245424;23;20812;-73
2022/03/16 01:20:46;;;;;;;18.80;12.57;;;9.40;99.90;;;;;;6243883;23;20238;-75
2022/03/16 01:23:13;;;;;;;17.08;11.88;;;9.40;99.90;;;;;;6245601;22;20237;-73
2022/03/16 01:25:40;;;;;;;21.95;15.20;;;9.40;99.90;;;;;;6246552;22;20159;-72
2022/03/16 01:28:07;;;;;;;27.33;15.10;;;9.30;99.90;;;;;;6246032;23;20250;-73
2022/03/16 01:30:34;;;;;;;22.50;15.00;;;9.20;99.90;;;;;;6245222;23;20238;-72
2022/03/16 01:33:03;;;;;;;23.38;17.70;;;9.10;99.90;;;;;;6246305;22;20517;-74
2022/03/16 01:35:30;;;;;;;21.08;15.55;;;9.10;99.90;;;;;;6246115;23;20208;-75
2022/03/16 01:37:57;;;;;;;26.20;16.10;;;9.10;99.90;;;;;;6245740;23;20215;-75
2022/03/16 01:40:24;;;;;;;22.92;15.30;;;8.90;99.90;;;;;;6245789;23;20163;-73
2022/03/16 01:42:51;;;;;;;24.05;16.65;;;8.80;99.90;;;;;;6245497;23;20185;-74
2022/03/16 01:45:17;;;;;;;30.08;17.25;;;8.80;99.90;;;;;;6245891;23;20686;-73
2022/03/16 01:47:45;;;;;;;28.70;17.70;;;8.80;99.90;;;;;;6246355;23;20215;-75
2022/03/16 01:50:14;;;;;;;24.70;16.55;;;8.80;99.90;;;;;;6245643;23;20217;-73
2022/03/16 01:53:05;;;;;;;26.83;16.00;;;8.80;99.90;;;;;;6246358;23;20241;-73
2022/03/16 01:55:32;;;;;;;23.23;16.58;;;8.70;99.90;;;;;;6247290;23;20190;-73
2022/03/16 01:58:01;;;;;;;21.02;15.30;;;8.70;99.90;;;;;;6246990;23;20179;-74
2022/03/16 02:00:29;;;;;;;27.80;18.02;;;8.70;99.90;;;;;;6248316;23;20477;-73
2022/03/16 02:02:56;;;;;;;27.60;18.05;;;8.70;99.90;;;;;;6247439;22;20173;-74
2022/03/16 02:05:24;;;;;;;30.35;19.02;;;8.80;99.90;;;;;;6248925;23;20249;-73
2022/03/16 02:07:51;;;;;;;30.40;17.52;;;8.80;99.90;;;;;;6248423;22;20212;-73
2022/03/16 02:10:19;;;;;;;26.65;17.55;;;8.80;99.90;;;;;;6246813;23;20251;-74
2022/03/16 02:12:49;;;;;;;28.77;18.25;;;8.70;99.90;;;;;;6247694;23;20526;-74
2022/03/16 02:15:16;;;;;;;29.67;18.10;;;8.60;99.90;;;;;;6248233;22;20289;-73
2022/03/16 02:17:43;;;;;;;34.05;20.30;;;8.60;99.90;;;;;;6247960;23;20676;-73
2022/03/16 02:20:11;;;;;;;36.13;20.10;;;8.60;99.90;;;;;;6247518;23;20202;-74
2022/03/16 02:22:51;;;;;;;31.45;19.90;;;8.50;99.90;;;;;;6246217;23;20163;-73
2022/03/16 02:25:18;;;;;;;26.52;18.10;;;8.50;99.90;;;;;;6248249;23;20209;-71
2022/03/16 02:27:46;;;;;;;30.27;20.20;;;8.50;99.90;;;;;;6248111;23;20158;-71
2022/03/16 02:30:14;;;;;;;34.30;21.75;;;8.50;99.90;;;;;;6247853;23;20575;-72
2022/03/16 02:32:45;;;;;;;34.75;23.00;;;8.50;99.90;;;;;;6248486;23;20258;-71
2022/03/16 02:35:11;;;;;;;29.02;18.95;;;8.40;99.90;;;;;;6250203;22;20213;-72
2022/03/16 02:37:41;;;;;;;33.90;20.15;;;8.40;99.90;;;;;;6252712;22;20182;-72
2022/03/16 02:40:12;;;;;;;33.47;21.25;;;8.40;99.90;;;;;;6255540;23;20167;-72
2022/03/16 02:42:54;;;;;;;41.55;23.33;;;8.30;99.90;;;;;;6253402;23;20162;-70
2022/03/16 02:45:21;;;;;;;33.42;21.73;;;8.20;99.90;;;;;;6248605;23;20495;-73
2022/03/16 02:47:49;;;;;;;32.00;20.95;;;8.20;99.90;;;;;;6248160;23;20163;-73
2022/03/16 02:50:18;;;;;;;43.58;22.88;;;8.20;99.90;;;;;;6247501;23;20174;-72
2022/03/16 02:52:46;;;;;;;37.90;22.13;;;8.10;99.90;;;;;;6248154;23;20205;-72
2022/03/16 02:55:14;;;;;;;36.30;21.63;;;8.10;99.90;;;;;;6247738;22;20738;-72
2022/03/16 02:57:42;;;;;;;34.55;22.33;;;8.00;99.90;;;;;;6247761;23;20266;-72
2022/03/16 03:00:10;;;;;;;33.13;21.45;;;8.00;99.90;;;;;;6247557;23;20536;-72
2022/03/16 03:02:38;;;;;;;38.80;23.15;;;7.90;99.90;;;;;;6247514;23;20229;-72
2022/03/16 03:05:05;;;;;;;34.85;21.83;;;7.90;99.90;;;;;;6247703;22;20232;-72
2022/03/16 03:07:32;;;;;;;39.47;22.67;;;7.90;99.90;;;;;;6250106;23;20163;-73
2022/03/16 03:10:00;;;;;;;39.70;23.45;;;7.90;99.90;;;;;;6246596;23;20265;-72
2022/03/16 03:12:28;;;;;;;37.50;23.85;;;7.90;99.90;;;;;;6247916;23;20232;-72
2022/03/16 03:14:55;;;;;;;31.63;21.75;;;8.00;99.90;;;;;;6247349;22;20202;-71
2022/03/16 03:17:24;;;;;;;41.03;22.80;;;7.90;99.90;;;;;;6247172;23;20218;-71
2022/03/16 03:19:51;;;;;;;34.65;20.08;;;7.90;99.90;;;;;;6246898;23;20166;-74
2022/03/16 03:22:17;;;;;;;35.72;23.23;;;7.90;99.90;;;;;;6247751;23;20188;-73
2022/03/16 03:24:45;;;;;;;45.65;23.23;;;7.90;99.90;;;;;;6247942;22;20284;-74
2022/03/16 03:27:12;;;;;;;34.95;22.02;;;7.80;99.90;;;;;;6247451;23;20161;-73
2022/03/16 03:29:40;;;;;;;36.50;23.08;;;7.80;99.90;;;;;;6246950;23;20192;-72
2022/03/16 03:32:08;;;;;;;34.10;23.67;;;7.80;99.90;;;;;;6247476;23;20235;-72
2022/03/16 03:34:35;;;;;;;47.97;25.38;;;7.70;99.90;;;;;;6247694;22;20252;-73
2022/03/16 03:37:02;;;;;;;43.47;23.55;;;7.70;99.90;;;;;;6247739;23;20213;-73
2022/03/16 03:39:29;;;;;;;40.85;24.88;;;7.60;99.90;;;;;;6248098;23;20255;-73
2022/03/16 03:41:57;;;;;;;29.42;20.05;;;7.60;99.90;;;;;;6249974;23;20248;-71
2022/03/16 03:44:24;;;;;;;43.30;23.85;;;7.60;99.90;;;;;;6252064;22;20202;-70
2022/03/16 03:46:53;;;;;;;38.13;22.60;;;7.50;99.90;;;;;;6255795;23;20245;-71
2022/03/16 03:49:20;;;;;;;46.92;23.67;;;7.50;99.90;;;;;;6254324;23;20162;-72
2022/03/16 03:51:47;;;;;;;37.75;22.25;;;7.50;99.90;;;;;;6250840;23;20200;-73
2022/03/16 03:54:14;;;;;;;41.38;23.23;;;7.40;99.90;;;;;;6246559;22;20201;-71
2022/03/16 03:56:41;;;;;;;47.90;26.38;;;7.40;99.90;;;;;;6247206;23;20165;-72
2022/03/16 03:59:07;;;;;;;38.67;21.55;;;7.40;99.90;;;;;;6247216;23;20185;-72
2022/03/16 04:01:34;;;;;;;36.00;23.17;;;7.40;99.90;;;;;;6246444;23;20165;-72
2022/03/16 04:04:03;;;;;;;46.03;24.50;;;7.40;99.90;;;;;;6246488;22;20201;-71
2022/03/16 04:06:31;;;;;;;42.25;26.35;;;7.40;99.90;;;;;;6246716;23;20244;-72
2022/03/16 04:08:58;;;;;;;46.05;26.15;;;7.40;99.90;;;;;;6246776;23;20184;-73
2022/03/16 04:11:25;;;;;;;39.38;23.48;;;7.40;99.90;;;;;;6245759;23;20206;-72
2022/03/16 04:13:53;;;;;;;36.35;22.67;;;7.40;99.90;;;;;;6246755;22;20201;-73
2022/03/16 04:16:21;;;;;;;44.53;25.92;;;7.30;99.90;;;;;;6247019;23;20165;-72
2022/03/16 04:18:48;;;;;;;40.63;23.92;;;7.30;99.90;;;;;;6247181;23;20493;-72
2022/03/16 04:21:17;;;;;;;39.03;23.63;;;7.30;99.90;;;;;;6245698;23;20211;-72
2022/03/16 04:23:44;;;;;;;39.50;23.52;;;7.20;99.90;;;;;;6246335;22;20280;-72
2022/03/16 04:26:11;;;;;;;50.03;27.95;;;7.20;99.90;;;;;;6246638;23;20242;-72
2022/03/16 04:28:37;;;;;;;43.05;26.73;;;7.20;99.90;;;;;;6248014;23;20236;-72
2022/03/16 04:31:05;;;;;;;42.65;27.98;;;7.20;99.90;;;;;;6255908;23;20164;-70
2022/03/16 04:33:32;;;;;;;36.92;23.95;;;7.10;99.90;;;;;;6254486;22;20249;-72
2022/03/16 04:35:59;;;;;;;48.30;27.17;;;7.10;99.90;;;;;;6246478;23;20164;-71
2022/03/16 04:38:27;;;;;;;44.60;27.60;;;7.10;99.90;;;;;;6246094;23;20230;-73
2022/03/16 04:40:54;;;;;;;42.75;26.92;;;7.00;99.90;;;;;;6245692;23;20479;-72
2022/03/16 04:43:21;;;;;;;43.58;25.48;;;6.90;99.90;;;;;;6246243;22;20207;-73
2022/03/16 04:45:49;;;;;;;40.22;26.52;;;6.80;99.90;;;;;;6247356;23;20208;-73
2022/03/16 04:48:16;;;;;;;41.55;27.88;;;6.80;99.90;;;;;;6246500;23;20275;-75
2022/03/16 04:50:44;;;;;;;41.80;26.80;;;6.80;99.90;;;;;;6245410;23;20213;-73
2022/03/16 04:53:11;;;;;;;49.88;27.27;;;6.70;99.90;;;;;;6245758;22;20194;-73
2022/03/16 04:55:39;;;;;;;51.00;29.75;;;6.70;99.90;;;;;;6245040;23;20216;-73
2022/03/16 04:58:08;;;;;;;42.67;26.88;;;6.70;99.90;;;;;;6245297;23;20701;-73
2022/03/16 05:00:36;;;;;;;45.38;27.25;;;6.70;99.90;;;;;;6246053;23;20161;-73
2022/03/16 05:03:03;;;;;;;40.85;24.85;;;6.70;99.90;;;;;;6245989;22;20160;-73
2022/03/16 05:05:30;;;;;;;47.45;28.13;;;6.80;99.90;;;;;;6246049;23;20230;-73
2022/03/16 05:07:57;;;;;;;54.78;30.83;;;6.80;99.90;;;;;;6245694;23;20247;-73
2022/03/16 05:10:24;;;;;;;42.10;27.13;;;6.80;99.90;;;;;;6244967;23;20628;-74
2022/03/16 05:12:53;;;;;;;37.63;25.83;;;6.90;99.90;;;;;;6245857;23;20190;-74
2022/03/16 05:15:21;;;;;;;47.78;28.55;;;6.80;99.90;;;;;;6246012;23;20158;-73
2022/03/16 05:17:48;;;;;;;47.45;27.50;;;6.90;99.90;;;;;;6244885;23;20164;-72
2022/03/16 05:20:17;;;;;;;41.58;25.88;;;6.90;99.90;;;;;;6244542;23;20171;-73
2022/03/16 05:22:45;;;;;;;47.50;25.98;;;6.90;99.90;;;;;;6246219;22;20197;-74
2022/03/16 05:25:13;;;;;;;49.03;26.15;;;7.00;99.90;;;;;;6245948;22;20284;-74
2022/03/16 05:27:41;;;;;;;49.90;26.85;;;7.00;99.90;;;;;;6244841;23;20168;-72
2022/03/16 05:30:11;;;;;;;51.45;26.98;;;6.90;99.90;;;;;;6244975;23;20187;-74
2022/03/16 05:32:41;;;;;;;50.92;28.33;;;6.80;99.90;;;;;;6245239;22;20202;-74
2022/03/16 05:35:09;;;;;;;54.50;29.92;;;6.80;99.90;;;;;;6244042;22;20204;-72
2022/03/16 05:37:36;;;;;;;48.72;29.77;;;6.80;99.90;;;;;;6245461;23;20243;-73
2022/03/16 05:40:05;;;;;;;46.75;29.63;;;6.70;99.90;;;;;;6244129;23;20183;-72
2022/03/16 05:42:32;;;;;;;41.13;25.48;;;6.70;99.90;;;;;;6245414;22;20541;-71
2022/03/16 05:44:59;;;;;;;47.88;28.45;;;6.60;99.90;;;;;;6244490;22;20249;-72
2022/03/16 05:47:28;;;;;;;49.55;28.65;;;6.70;99.90;;;;;;6244730;23;20543;-73
2022/03/16 05:49:55;;;;;;;48.05;27.05;;;6.80;99.90;;;;;;6244701;23;20187;-71
2022/03/16 05:52:23;;;;;;;51.95;28.10;;;6.80;99.90;;;;;;6246256;23;20168;-73
2022/03/16 05:54:51;;;;;;;48.63;26.10;;;6.90;99.90;;;;;;6245312;22;20237;-70
2022/03/16 05:57:18;;;;;;;56.30;30.48;;;6.90;99.90;;;;;;6245440;23;20533;-71
2022/03/16 05:59:46;;;;;;;44.03;27.17;;;6.90;99.90;;;;;;6244354;22;20647;-75
2022/03/16 06:02:14;;;;;;;39.25;24.65;;;7.00;99.90;;;;;;6244850;23;20167;-73
2022/03/16 06:04:43;;;;;;;47.00;27.65;;;7.10;99.90;;;;;;6245989;22;20258;-74
2022/03/16 06:07:11;;;;;;;46.50;25.40;;;7.20;99.90;;;;;;6245598;23;20169;-73
2022/03/16 06:09:38;;;;;;;47.20;28.27;;;7.20;99.90;;;;;;6244618;23;20250;-74
2022/03/16 06:12:06;;;;;;;47.65;26.83;;;7.20;99.90;;;;;;6245796;23;20203;-72
2022/03/16 06:14:33;;;;;;;44.83;28.05;;;7.30;99.90;;;;;;6246296;22;20251;-72
2022/03/16 06:17:00;;;;;;;45.67;26.17;;;7.30;99.90;;;;;;6246285;23;20190;-72
2022/03/16 06:19:27;;;;;;;52.22;28.58;;;7.30;99.90;;;;;;6246835;23;20187;-73
2022/03/16 06:21:55;;;;;;;34.42;21.60;;;7.30;99.90;;;;;;6249307;23;20196;-73
2022/03/16 06:24:25;;;;;;;46.08;27.58;;;7.40;99.90;;;;;;6255746;22;20235;-72
2022/03/16 06:26:52;;;;;;;35.70;22.77;;;7.40;99.90;;;;;;6245979;23;20166;-72
2022/03/16 06:29:19;;;;;;;37.20;25.73;;;7.50;99.90;;;;;;6245963;22;20169;-73
2022/03/16 06:31:46;;;;;;;47.72;23.70;;;7.50;99.90;;;;;;6244654;23;20161;-72
2022/03/16 06:34:13;;;;;;;43.40;25.45;;;7.60;99.90;;;;;;6245822;22;20280;-72
2022/03/16 06:36:41;;;;;;;40.35;23.80;;;7.60;99.90;;;;;;6245144;22;20201;-72
2022/03/16 06:39:10;;;;;;;46.17;25.33;;;7.70;99.90;;;;;;6245478;23;20265;-71
2022/03/16 06:41:36;;;;;;;34.13;23.27;;;7.80;99.90;;;;;;6244894;23;20211;-72
2022/03/16 06:44:04;;;;;;;34.28;21.00;;;7.90;99.90;;;;;;6245727;22;20198;-74
2022/03/16 06:46:31;;;;;;;35.00;21.20;;;7.90;99.90;;;;;;6247304;22;20232;-72
2022/03/16 06:48:58;;;;;;;40.28;22.55;;;7.90;99.90;;;;;;6247497;23;20176;-74
2022/03/16 06:51:25;;;;;;;28.27;20.90;;;8.00;99.90;;;;;;6247363;23;20241;-73
2022/03/16 06:53:52;;;;;;;33.05;20.95;;;8.10;99.90;;;;;;6249231;22;20241;-73
2022/03/16 06:56:20;;;;;;;31.42;19.92;;;8.20;99.90;;;;;;6250240;23;20167;-72
2022/03/16 06:58:48;;;;;;;31.65;21.33;;;8.30;99.90;;;;;;6252416;23;20218;-73
2022/03/16 07:01:15;;;;;;;48.42;22.50;;;8.30;99.90;;;;;;6251449;23;20165;-73
2022/03/16 07:03:44;;;;;;;35.50;20.02;;;8.40;99.90;;;;;;6253164;22;20198;-73
2022/03/16 07:06:11;;;;;;;41.00;24.00;;;8.30;99.90;;;;;;6254045;23;20162;-73
2022/03/16 07:08:38;;;;;;;36.22;23.05;;;8.20;99.90;;;;;;6248562;23;20264;-73
2022/03/16 07:11:07;;;;;;;25.67;18.42;;;8.30;99.90;;;;;;6247359;23;20163;-73
2022/03/16 07:13:35;;;;;;;32.30;21.70;;;8.30;99.90;;;;;;6247309;22;20229;-73
2022/03/16 07:16:02;;;;;;;31.60;22.10;;;8.30;99.90;;;;;;6246655;22;20174;-71
2022/03/16 07:18:30;;;;;;;28.27;18.98;;;8.40;99.90;;;;;;6246820;23;20163;-73
2022/03/16 07:20:57;;;;;;;31.85;20.02;;;8.40;99.90;;;;;;6246582;23;20171;-72
2022/03/16 07:23:24;;;;;;;33.45;22.08;;;8.50;99.90;;;;;;6246950;22;20249;-72
2022/03/16 07:25:52;;;;;;;29.83;20.10;;;8.50;99.90;;;;;;6246540;23;20220;-73
2022/03/16 07:28:20;;;;;;;32.13;18.92;;;8.50;99.90;;;;;;6247017;23;20238;-72
2022/03/16 07:30:48;;;;;;;30.83;20.35;;;8.50;99.90;;;;;;6245522;23;20640;-73
2022/03/16 07:33:16;;;;;;;25.73;17.10;;;8.50;99.90;;;;;;6246604;22;20227;-73
2022/03/16 07:35:43;;;;;;;31.15;19.13;;;8.50;99.90;;;;;;6246473;22;20166;-71
2022/03/16 07:38:11;;;;;;;29.52;18.30;;;8.50;99.90;;;;;;6246091;23;20225;-72
2022/03/16 07:40:38;;;;;;;29.65;17.50;;;8.50;99.90;;;;;;6246182;22;20217;-72
2022/03/16 07:43:06;;;;;;;35.58;18.13;;;8.60;99.90;;;;;;6246278;22;20182;-71
2022/03/16 07:45:34;;;;;;;29.40;17.75;;;8.60;99.90;;;;;;6246163;23;20282;-71
2022/03/16 07:48:03;;;;;;;29.50;19.90;;;8.70;99.90;;;;;;6246706;23;20186;-73
2022/03/16 07:50:30;;;;;;;31.38;19.67;;;8.80;99.90;;;;;;6245719;23;20234;-75
2022/03/16 07:52:59;;;;;;;26.52;17.20;;;8.80;99.90;;;;;;6246177;22;20194;-73
2022/03/16 07:55:27;;;;;;;29.77;16.45;;;9.00;99.90;;;;;;6246075;23;20242;-73
2022/03/16 07:57:55;;;;;;;30.40;17.98;;;9.20;99.90;;;;;;6245938;23;20194;-72
2022/03/16 08:00:23;;;;;;;24.20;16.35;;;9.20;99.90;;;;;;6245496;23;20187;-71
2022/03/16 08:02:53;;;;;;;22.00;15.60;;;9.40;99.90;;;;;;6245863;23;20159;-74
2022/03/16 08:05:22;;;;;;;29.00;18.42;;;9.50;99.90;;;;;;6246572;23;20213;-71
2022/03/16 08:07:50;;;;;;;26.73;16.33;;;9.80;99.90;;;;;;6246239;23;20164;-72
2022/03/16 08:10:17;;;;;;;25.52;16.75;;;10.00;99.90;;;;;;6245668;23;20711;-71
2022/03/16 08:12:44;;;;;;;29.42;16.20;;;10.10;99.90;;;;;;6251227;23;20212;-72
2022/03/16 08:15:11;;;;;;;20.85;15.45;;;10.10;99.90;;;;;;6256446;22;20532;-72
2022/03/16 08:17:37;;;;;;;26.92;16.58;;;10.30;99.90;;;;;;6250923;23;20247;-73
2022/03/16 08:20:07;;;;;;;20.90;15.13;;;10.40;99.90;;;;;;6245616;23;20261;-72
2022/03/16 08:22:36;;;;;;;21.75;15.85;;;10.50;99.90;;;;;;6247444;23;20201;-72
2022/03/16 08:25:06;;;;;;;24.42;17.00;;;10.60;99.90;;;;;;6246744;22;20298;-77
2022/03/16 08:27:33;;;;;;;30.58;15.38;;;10.60;99.90;;;;;;6246251;23;20242;-75
2022/03/16 08:30:00;;;;;;;26.05;16.70;;;10.60;99.90;;;;;;6245857;23;20542;-74
2022/03/16 08:32:27;;;;;;;25.35;15.88;;;10.90;99.90;;;;;;6246275;23;20201;-74
2022/03/16 08:34:54;;;;;;;22.70;15.15;;;11.00;99.90;;;;;;6246659;22;20580;-74
2022/03/16 08:37:21;;;;;;;28.23;15.30;;;11.10;99.90;;;;;;6247166;23;20216;-74
2022/03/16 08:39:50;;;;;;;26.30;16.73;;;11.20;99.90;;;;;;6245323;23;20267;-73
2022/03/16 08:42:17;;;;;;;26.58;15.15;;;11.40;99.90;;;;;;6246155;23;20176;-74
2022/03/16 08:44:46;;;;;;;25.92;15.60;;;11.40;99.90;;;;;;6246435;22;20255;-72
2022/03/16 08:47:16;;;;;;;26.20;16.75;;;11.60;99.90;;;;;;6245677;23;20174;-75
2022/03/16 08:49:44;;;;;;;23.40;16.65;;;11.50;99.90;;;;;;6245649;23;20193;-74
2022/03/16 08:52:11;;;;;;;26.00;17.80;;;11.50;99.90;;;;;;6245791;23;20176;-72
2022/03/16 08:54:38;;;;;;;24.05;17.30;;;11.60;99.90;;;;;;6246076;22;20196;-72
2022/03/16 08:57:08;;;;;;;25.08;17.30;;;11.50;99.90;;;;;;6246419;23;20249;-72
2022/03/16 08:59:36;;;;;;;25.65;16.40;;;11.50;99.90;;;;;;6245735;23;20282;-74
2022/03/16 09:02:03;;;;;;;30.20;17.25;;;11.50;99.90;;;;;;6244004;23;20245;-73
2022/03/16 09:04:30;;;;;;;22.95;15.57;;;11.40;99.90;;;;;;6244178;22;20254;-72
2022/03/16 09:06:58;;;;;;;32.65;17.98;;;11.40;99.90;;;;;;6245396;23;20164;-71
2022/03/16 09:09:25;;;;;;;29.45;16.77;;;11.40;99.90;;;;;;6244479;22;20192;-71
2022/03/16 09:11:53;;;;;;;25.88;17.63;;;11.50;99.90;;;;;;6244204;23;20201;-72
2022/03/16 09:14:21;;;;;;;29.35;17.88;;;11.70;99.90;;;;;;6245313;22;20228;-70
2022/03/16 09:16:49;;;;;;;29.33;17.92;;;11.80;99.90;;;;;;6245246;23;20253;-71
2022/03/16 09:19:20;;;;;;;27.50;20.40;;;11.90;99.90;;;;;;6245424;23;20197;-71
2022/03/16 09:21:48;;;;;;;28.75;19.08;;;12.00;99.90;;;;;;6244768;23;20190;-72
2022/03/16 09:24:15;;;;;;;28.55;17.65;;;12.10;99.90;;;;;;6245529;22;20208;-73
2022/03/16 09:26:47;;;;;;;30.40;18.52;;;12.20;99.90;;;;;;6245436;23;20249;-71
2022/03/16 09:29:16;;;;;;;27.75;17.73;;;12.20;99.90;;;;;;6244772;23;20662;-75
2022/03/16 09:31:44;;;;;;;30.30;16.77;;;12.20;99.90;;;;;;6244550;23;20166;-71
2022/03/16 09:34:12;;;;;;;24.60;16.27;;;12.30;99.90;;;;;;6245047;22;20256;-71
2022/03/16 09:36:42;;;;;;;23.58;16.60;;;12.20;99.90;;;;;;6245389;23;20171;-71
2022/03/16 09:39:09;;;;;;;28.52;16.83;;;12.20;99.90;;;;;;6245655;23;20190;-72
2022/03/16 09:41:36;;;;;;;27.48;17.30;;;12.40;99.90;;;;;;6245796;23;20216;-71
2022/03/16 09:44:06;;;;;;;25.13;16.95;;;12.60;99.90;;;;;;6245368;22;20196;-72
2022/03/16 09:46:35;;;;;;;22.30;16.33;;;12.70;99.90;;;;;;6245358;22;20166;-71
2022/03/16 09:49:07;;;;;;;24.85;16.88;;;12.70;99.90;;;;;;6245107;22;20202;-72
2022/03/16 09:51:36;;;;;;;25.27;17.35;;;13.10;99.90;;;;;;6244946;23;20163;-71
2022/03/16 09:54:03;;;;;;;31.38;18.65;;;13.90;99.90;;;;;;6245917;22;20199;-72
2022/03/16 09:56:32;;;;;;;25.40;16.35;;;14.80;99.90;;;;;;6247409;23;20241;-72
2022/03/16 09:59:00;;;;;;;26.20;17.57;;;16.10;99.90;;;;;;6248089;23;20609;-71
2022/03/16 10:01:27;;;;;;;23.97;15.90;;;17.10;98.60;;;;;;6249065;23;20386;-71
2022/03/16 10:04:11;;;;;;;24.53;16.30;;;18.40;95.50;;;;;;6251005;22;20453;-70
2022/03/16 10:06:40;;;;;;;23.13;15.90;;;19.50;92.30;;;;;;6253496;23;20859;-72
2022/03/16 10:15:12;;;;;;;22.10;14.80;;;20.30;86.10;;;;;;6248687;22;20435;-71
2022/03/16 10:17:45;;;;;;;20.97;15.27;;;19.40;86.10;;;;;;6250854;22;20397;-71
2022/03/16 10:20:26;;;;;;;21.73;15.70;;;19.10;88.40;;;;;;6249774;23;20437;-71
2022/03/16 10:23:03;;;;;;;21.20;14.17;;;18.90;88.90;;;;;;6251115;22;20421;-72
2022/03/16 10:25:33;;;;;;;23.37;14.67;;;19.30;87.80;;;;;;6246294;23;20412;-72
2022/03/16 10:28:18;;;;;;;22.83;15.93;;;19.30;87.80;;;;;;6247643;23;20475;-71
2022/03/16 10:30:56;;;;;;;23.13;15.47;;;19.30;88.50;;;;;;6247087;23;20392;-69
2022/03/16 10:33:25;;;;;;;18.23;14.87;;;19.90;87.80;;;;;;6247182;22;20439;-70
2022/03/16 10:36:06;;;;;;;18.13;14.67;;;20.10;86.20;;;;;;6245865;23;20432;-70
2022/03/16 10:38:38;;;;;;;23.30;14.47;;;20.20;85.60;;;;;;6246698;23;20926;-70
2022/03/16 10:46:34;;;;;;;23.30;14.93;;;20.30;83.90;;;;;;6245932;23;20430;-70
2022/03/16 10:46:53;;;;;;;16.50;11.90;;;19.00;86.60;;;;;;6245853;23;20392;-69
2022/03/16 10:49:22;;;;;;;20.33;14.13;;;18.10;89.30;;;;;;6245965;23;20393;-69
2022/03/16 10:52:11;;;;;;;22.00;14.33;;;17.50;90.10;;;;;;6245541;22;20413;-71
2022/03/16 10:54:39;;;;;;;19.40;13.38;;;16.80;90.70;;;;;;6246292;22;20516;-69
2022/03/16 10:57:10;;;;;;;18.25;13.32;;;16.30;92.10;;;;;;6246707;23;20224;-69
2022/03/16 10:59:42;;;;;;;17.83;11.85;;;15.70;93.40;;;;;;6245043;22;20196;-69
2022/03/16 11:02:12;;;;;;;24.23;14.02;;;15.40;94.30;;;;;;6246082;23;20159;-70
2022/03/16 11:04:40;;;;;;;16.60;13.50;;;15.10;95.20;;;;;;6246277;22;20206;-69
2022/03/16 11:07:10;;;;;;;19.15;13.77;;;14.80;96.20;;;;;;6236680;22;20199;-70
2022/03/16 11:09:39;;;;;;;18.73;13.23;;;14.70;96.10;;;;;;6239782;23;20239;-71
2022/03/16 11:14:53;;;;;;;20.58;15.70;;;14.70;96.80;;;;;;6242007;22;20229;-70
2022/03/16 11:17:21;;;;;;;24.10;14.00;;;14.60;97.40;;;;;;6239758;23;20167;-72
2022/03/16 11:19:52;;;;;;;24.73;13.55;;;14.50;97.20;;;;;;6238864;23;20509;-70
2022/03/16 11:22:26;;;;;;;20.10;13.82;;;14.50;97.50;;;;;;6239299;23;20786;-68
2022/03/16 11:24:59;;;;;;;21.15;13.35;;;14.70;96.80;;;;;;6238325;22;20715;-70
2022/03/16 11:27:50;;;;;;;23.27;15.52;;;14.80;96.70;;;;;;6239789;23;20213;-68
2022/03/16 11:30:26;;;;;;;22.42;13.25;;;14.90;96.20;;;;;;6237913;23;20159;-68
2022/03/16 11:32:56;;;;;;;23.65;14.45;;;15.10;95.90;;;;;;6238171;22;20573;-70
2022/03/16 11:35:28;;;;;;;23.63;15.63;;;15.20;95.20;;;;;;6239186;23;20178;-69
2022/03/16 11:38:01;;;;;;;26.48;14.55;;;15.30;95.00;;;;;;6239541;23;20208;-68
2022/03/16 11:40:31;;;;;;;23.48;14.90;;;15.20;95.00;;;;;;6238892;23;20637;-70
2022/03/16 11:43:17;;;;;;;25.38;16.38;;;15.20;95.00;;;;;;6239961;22;20217;-68
2022/03/16 11:45:50;;;;;;;23.50;16.15;;;15.10;95.00;;;;;;6238948;23;20263;-70
2022/03/16 11:48:44;;;;;;;21.20;15.02;;;15.00;94.70;;;;;;6237531;23;20179;-69
2022/03/16 11:51:27;;;;;;;26.02;15.82;;;15.00;94.90;;;;;;6224174;23;20179;-72
2022/03/16 11:54:11;;;;;;;20.77;14.73;;;14.90;95.00;;;;;;6220085;22;20659;-72
2022/03/16 11:56:53;;;;;;;24.00;16.33;;;15.00;95.30;;;;;;6223207;23;20214;-72
2022/03/16 11:59:40;;;;;;;22.35;14.70;;;15.10;95.00;;;;;;6221856;22;20286;-74
2022/03/16 12:02:23;;;;;;;18.63;13.52;;;15.00;94.30;;;;;;6223259;23;20168;-73
2022/03/16 12:04:56;;;;;;;20.15;14.45;;;14.80;94.50;;;;;;6222327;22;20245;-75
2022/03/16 12:07:28;;;;;;;20.73;12.95;;;14.40;94.50;;;;;;6223874;23;20206;-75
2022/03/16 12:10:03;;;;;;;23.70;14.02;;;14.40;94.90;;;;;;6223967;23;20914;-76
2022/03/16 12:15:22;;;;;;;24.48;14.93;;;14.40;95.00;;;;;;6224039;23;20166;-76
2022/03/16 12:18:34;;;;;;;17.90;12.98;;;14.60;94.90;;;;;;6222370;22;20618;-76
2022/03/16 12:21:07;;;;;;;19.08;12.38;;;14.70;94.20;;;;;;6225685;23;20234;-74
2022/03/16 12:23:58;;;;;;;27.60;12.95;;;14.80;93.80;;;;;;6221701;22;20318;-75
2022/03/16 12:26:31;;;;;;;22.10;13.15;;;14.70;93.50;;;;;;6217579;22;20183;-74
2022/03/16 12:29:03;;;;;;;18.88;13.43;;;14.80;93.40;;;;;;6223638;23;20174;-73
2022/03/16 12:31:31;;;;;;;16.77;11.68;;;14.60;93.20;;;;;;6220554;23;20222;-74
2022/03/16 12:33:59;;;;;;;24.80;13.48;;;14.70;93.30;;;;;;6221626;22;20195;-73
2022/03/16 12:36:28;;;;;;;17.75;11.75;;;14.60;93.20;;;;;;6220475;23;20163;-74
2022/03/16 12:38:57;;;;;;;21.27;13.55;;;14.80;92.90;;;;;;6221072;23;20197;-72
2022/03/16 12:44:14;;;;;;;16.48;12.60;;;14.80;92.50;;;;;;6218755;22;20756;-73
2022/03/16 12:47:01;;;;;;;19.30;11.68;;;14.90;92.40;;;;;;6217574;22;20175;-72
2022/03/16 12:49:28;;;;;;;19.63;12.55;;;14.70;92.00;;;;;;6216933;22;20174;-72
2022/03/16 12:51:59;;;;;;;20.77;12.43;;;14.90;92.30;;;;;;6217504;23;20674;-71
2022/03/16 12:54:30;;;;;;;25.88;11.73;;;15.00;91.80;;;;;;6219078;22;21144;-71
2022/03/16 12:57:02;;;;;;;22.73;12.70;;;14.90;91.40;;;;;;6220639;22;20203;-72
2022/03/16 12:59:32;;;;;;;17.67;12.10;;;14.70;91.70;;;;;;6218418;23;20167;-73
2022/03/16 13:02:03;;;;;;;20.73;11.65;;;14.70;91.40;;;;;;6220227;23;20270;-76